Time;durP1;ratioP1;P1;durP2;ratioP2;P2;SDS_P1;SDS_P2;PMS_P1;PMS_P2;Temp;Humidity;BMP_temperature;BMP_pressure;BME280_temperature;BME280_humidity;BME280_pressure;Samples;Min_cycle;Max_cycle;Signal;HPM_P1;HPM_P2
2022/06/21 00:01:08;;;;;;;;;;;9.50;99.90;;;;;;4984826;28;20234;-63
2022/06/21 00:03:34;;;;;;;;;;;9.50;99.90;;;;;;4975957;28;20485;-63
2022/06/21 00:05:59;;;;;;;;;;;9.60;99.90;;;;;;4972768;28;20012;-63
2022/06/21 00:08:28;;;;;;;;;;;9.50;99.90;;;;;;4976574;28;19914;-60
2022/06/21 00:10:54;;;;;;;;;;;9.50;99.90;;;;;;4974656;28;19910;-62
2022/06/21 00:13:21;;;;;;;;;;;9.50;99.90;;;;;;4977205;28;19965;-62
2022/06/21 00:15:48;;;;;;;;;;;9.40;99.90;;;;;;4980093;28;19910;-61
2022/06/21 00:18:16;;;;;;;;;;;9.30;99.90;;;;;;4961955;28;19925;-61
2022/06/21 00:20:42;;;;;;;;;;;9.20;99.90;;;;;;4977455;28;19913;-61
2022/06/21 00:23:12;;;;;;;;;;;9.10;99.90;;;;;;4977544;28;20008;-61
2022/06/21 00:25:37;;;;;;;;;;;9.20;99.90;;;;;;4973426;28;19914;-61
2022/06/21 00:28:03;;;;;;;;;;;9.10;99.90;;;;;;4978948;28;19913;-61
2022/06/21 00:30:29;;;;;;;;;;;9.20;99.90;;;;;;4979612;28;19918;-61
2022/06/21 00:32:55;;;;;;;;;;;9.20;99.90;;;;;;5009856;28;19993;-61
2022/06/21 00:35:21;;;;;;;;;;;9.20;99.90;;;;;;5013617;28;19924;-61
2022/06/21 00:37:47;;;;;;;;;;;9.20;99.90;;;;;;5014273;28;19921;-62
2022/06/21 00:40:21;;;;;;;;;;;9.00;99.90;;;;;;5016516;28;19917;-61
2022/06/21 00:42:54;;;;;;;;;;;9.00;99.90;;;;;;5015490;28;20415;-61
2022/06/21 00:45:26;;;;;;;;;;;9.00;99.90;;;;;;5015219;28;19924;-61
2022/06/21 00:47:54;;;;;;;;;;;9.00;99.90;;;;;;5015871;28;20494;-61
2022/06/21 00:50:22;;;;;;;;;;;9.00;99.90;;;;;;5015062;28;19909;-62
2022/06/21 00:52:53;;;;;;;;;;;9.00;99.90;;;;;;5015757;28;19915;-62
2022/06/21 00:55:25;;;;;;;;;;;8.90;99.90;;;;;;5016050;28;20008;-62
2022/06/21 00:57:52;;;;;;;;;;;8.80;99.90;;;;;;5018552;28;20384;-62
2022/06/21 01:00:26;;;;;;;;;;;8.70;99.90;;;;;;5016996;28;20427;-62
2022/06/21 01:02:52;;;;;;;;;;;8.60;99.90;;;;;;5016225;28;20046;-62
2022/06/21 01:05:18;;;;;;;;;;;8.70;99.90;;;;;;5017043;28;19917;-62
2022/06/21 01:07:43;;;;;;;;;;;8.70;99.90;;;;;;5015973;28;19913;-62
2022/06/21 01:10:11;;;;;;;;;;;8.50;99.90;;;;;;5018259;28;19967;-62
2022/06/21 01:12:39;;;;;;;;;;;8.60;99.90;;;;;;5015324;28;19909;-62
2022/06/21 01:15:08;;;;;;;;;;;8.70;99.90;;;;;;5017210;28;19914;-62
2022/06/21 01:17:34;;;;;;;;;;;8.70;99.90;;;;;;5013035;28;19914;-62
2022/06/21 01:20:02;;;;;;;;;;;8.60;99.90;;;;;;5016223;28;19923;-62
2022/06/21 01:22:34;;;;;;;;;;;8.60;99.90;;;;;;5000535;28;20472;-62
2022/06/21 01:25:18;;;;;;;;;;;8.60;99.90;;;;;;5018804;28;20003;-62
2022/06/21 01:27:43;;;;;;;;;;;8.50;99.90;;;;;;5015655;28;19913;-62
2022/06/21 01:30:09;;;;;;;;;;;8.60;99.90;;;;;;5003518;28;19917;-62
2022/06/21 01:32:35;;;;;;;;;;;8.50;99.90;;;;;;5017716;28;20455;-62
2022/06/21 01:35:06;;;;;;;;;;;8.40;99.90;;;;;;4997934;28;19964;-62
2022/06/21 01:37:32;;;;;;;;;;;8.50;99.90;;;;;;5010529;28;20239;-61
2022/06/21 01:39:58;;;;;;;;;;;8.50;99.90;;;;;;4999952;28;19928;-62
2022/06/21 01:42:31;;;;;;;;;;;8.40;99.90;;;;;;5016768;28;19917;-62
2022/06/21 01:44:59;;;;;;;;;;;8.30;99.90;;;;;;5017549;28;19948;-62
2022/06/21 01:47:26;;;;;;;;;;;8.20;99.90;;;;;;5021680;28;20055;-63
2022/06/21 01:49:53;;;;;;;;;;;8.20;99.90;;;;;;5017044;28;19918;-61
2022/06/21 01:52:21;;;;;;;;;;;8.30;99.90;;;;;;5021499;28;20396;-62
2022/06/21 01:54:51;;;;;;;;;;;8.30;99.90;;;;;;5018481;28;19913;-62
2022/06/21 01:57:16;;;;;;;;;;;8.20;99.90;;;;;;5018763;28;19952;-61
2022/06/21 01:59:46;;;;;;;;;;;8.10;99.90;;;;;;5021980;28;20110;-62
2022/06/21 02:02:12;;;;;;;;;;;8.00;99.90;;;;;;5019919;28;19924;-62
2022/06/21 02:04:42;;;;;;;;;;;8.10;99.90;;;;;;5019905;28;19909;-62
2022/06/21 02:07:10;;;;;;;;;;;8.20;99.90;;;;;;5000240;28;19917;-62
2022/06/21 02:09:42;;;;;;;;;;;8.20;99.90;;;;;;5024969;28;19920;-62
2022/06/21 02:12:10;;;;;;;;;;;8.20;99.90;;;;;;5001474;28;20324;-62
2022/06/21 02:14:41;;;;;;;;;;;8.20;99.90;;;;;;5018068;28;19913;-62
2022/06/21 02:17:13;;;;;;;;;;;8.10;99.90;;;;;;5015512;28;20276;-62
2022/06/21 02:19:48;;;;;;;;;;;8.00;99.90;;;;;;5020465;28;20400;-62
2022/06/21 02:22:20;;;;;;;;;;;8.00;99.90;;;;;;5019335;28;19913;-62
2022/06/21 02:24:46;;;;;;;;;;;7.90;99.90;;;;;;5017346;28;19913;-62
2022/06/21 02:27:13;;;;;;;;;;;7.80;99.90;;;;;;5025397;28;20007;-61
2022/06/21 02:29:40;;;;;;;;;;;7.70;99.90;;;;;;5019303;28;19913;-61
2022/06/21 02:32:09;;;;;;;;;;;7.70;99.90;;;;;;5021267;28;19927;-61
2022/06/21 02:34:38;;;;;;;;;;;7.80;99.90;;;;;;5025906;28;20361;-61
2022/06/21 02:37:04;;;;;;;;;;;7.80;99.90;;;;;;5017786;28;20361;-61
2022/06/21 02:39:30;;;;;;;;;;;7.80;99.90;;;;;;4999306;28;20270;-61
2022/06/21 02:42:00;;;;;;;;;;;7.70;99.90;;;;;;5017509;28;20371;-61
2022/06/21 02:44:30;;;;;;;;;;;7.80;99.90;;;;;;5017331;28;20008;-61
2022/06/21 02:47:06;;;;;;;;;;;7.70;99.90;;;;;;5023512;28;20361;-61
2022/06/21 02:49:34;;;;;;;;;;;7.70;99.90;;;;;;5023664;28;19913;-61
2022/06/21 02:52:02;;;;;;;;;;;7.60;99.90;;;;;;5020152;28;19960;-61
2022/06/21 02:54:39;;;;;;;;;;;7.60;99.90;;;;;;5018926;28;20039;-61
2022/06/21 02:57:09;;;;;;;;;;;7.60;99.90;;;;;;5023273;28;19941;-61
2022/06/21 02:59:36;;;;;;;;;;;7.50;99.90;;;;;;5018436;28;19917;-60
2022/06/21 03:02:07;;;;;;;;;;;7.60;99.90;;;;;;5019658;28;19936;-61
2022/06/21 03:04:35;;;;;;;;;;;7.60;99.90;;;;;;5022973;28;19956;-61
2022/06/21 03:07:02;;;;;;;;;;;7.70;99.90;;;;;;5016967;28;19979;-61
2022/06/21 03:09:28;;;;;;;;;;;7.70;99.90;;;;;;5015695;28;19910;-61
2022/06/21 03:11:56;;;;;;;;;;;7.80;99.90;;;;;;5018792;28;19959;-61
2022/06/21 03:14:23;;;;;;;;;;;7.90;99.90;;;;;;5021271;28;20175;-60
2022/06/21 03:16:48;;;;;;;;;;;7.80;99.90;;;;;;5015280;28;19963;-60
2022/06/21 03:19:21;;;;;;;;;;;7.70;99.90;;;;;;5017851;28;19921;-61
2022/06/21 03:21:47;;;;;;;;;;;7.70;99.90;;;;;;5011125;28;20011;-61
2022/06/21 03:24:16;;;;;;;;;;;7.60;99.90;;;;;;5024388;28;19992;-61
2022/06/21 03:26:44;;;;;;;;;;;7.60;99.90;;;;;;5030985;28;20214;-61
2022/06/21 03:29:09;;;;;;;;;;;7.60;99.90;;;;;;5013131;28;20280;-61
2022/06/21 03:31:37;;;;;;;;;;;7.50;99.90;;;;;;5019237;28;19918;-61
2022/06/21 03:34:05;;;;;;;;;;;7.40;99.90;;;;;;5020839;28;19921;-61
2022/06/21 03:36:31;;;;;;;;;;;7.50;99.90;;;;;;5025729;28;19969;-61
2022/06/21 03:39:01;;;;;;;;;;;7.50;99.90;;;;;;5021202;28;19964;-61
2022/06/21 03:41:45;;;;;;;;;;;7.40;99.90;;;;;;5026353;28;19996;-61
2022/06/21 03:44:25;;;;;;;;;;;7.40;99.90;;;;;;5019588;28;19921;-61
2022/06/21 03:47:03;;;;;;;;;;;7.50;99.90;;;;;;5020819;28;19921;-61
2022/06/21 03:49:36;;;;;;;;;;;7.60;99.90;;;;;;5023245;28;19915;-61
2022/06/21 03:52:09;;;;;;;;;;;7.70;99.90;;;;;;5025130;28;20364;-61
2022/06/21 03:54:41;;;;;;;;;;;7.70;99.90;;;;;;5013054;28;19949;-61
2022/06/21 03:57:13;;;;;;;;;;;7.90;99.90;;;;;;5024225;28;20271;-61
2022/06/21 03:59:39;;;;;;;;;;;8.00;99.90;;;;;;5025727;28;19917;-61
2022/06/21 04:02:08;;;;;;;;;;;8.00;99.90;;;;;;5020574;28;20282;-61
2022/06/21 04:04:45;;;;;;;;;;;7.90;99.90;;;;;;5018593;28;19918;-61
2022/06/21 04:07:32;;;;;;;;;;;7.90;99.90;;;;;;5019364;28;19968;-61
2022/06/21 04:10:05;;;;;;;;;;;7.90;99.90;;;;;;5016600;28;20277;-61
2022/06/21 04:12:53;;;;;;;;;;;8.20;99.90;;;;;;5019922;28;19924;-61
2022/06/21 04:15:44;;;;;;;;;;;8.30;99.90;;;;;;5006273;28;19916;-61
2022/06/21 04:18:15;;;;;;;;;;;8.40;99.90;;;;;;5018198;28;20449;-61
2022/06/21 04:20:40;;;;;;;;;;;8.40;99.90;;;;;;5019999;28;20581;-61
2022/06/21 04:23:10;;;;;;;;;;;8.50;99.90;;;;;;5019399;28;19935;-61
2022/06/21 04:25:51;;;;;;;;;;;8.50;99.90;;;;;;5020308;28;20353;-62
2022/06/21 04:28:19;;;;;;;;;;;8.60;99.90;;;;;;5023606;28;19995;-63
2022/06/21 04:30:51;;;;;;;;;;;8.60;99.90;;;;;;5003759;28;19917;-62
2022/06/21 04:33:22;;;;;;;;;;;8.70;99.90;;;;;;5021140;28;19918;-62
2022/06/21 04:35:51;;;;;;;;;;;8.80;99.90;;;;;;5023423;28;19913;-62
2022/06/21 04:38:22;;;;;;;;;;;8.90;99.90;;;;;;5020345;28;19924;-62
2022/06/21 04:40:52;;;;;;;;;;;9.20;99.90;;;;;;5018801;28;19920;-62
2022/06/21 04:43:17;;;;;;;;;;;9.40;99.90;;;;;;5016212;28;19921;-62
2022/06/21 04:45:51;;;;;;;;;;;9.60;99.90;;;;;;5021458;28;19917;-61
2022/06/21 04:48:17;;;;;;;;;;;9.80;99.90;;;;;;5020168;28;19909;-61
2022/06/21 04:50:44;;;;;;;;;;;9.90;99.90;;;;;;5008467;28;19928;-61
2022/06/21 04:53:13;;;;;;;;;;;9.90;99.90;;;;;;5018574;28;19924;-61
2022/06/21 04:55:53;;;;;;;;;;;9.90;99.90;;;;;;5018094;28;19959;-61
2022/06/21 04:58:19;;;;;;;;;;;10.00;99.90;;;;;;5023229;28;19918;-61
2022/06/21 05:00:44;;;;;;;;;;;10.00;99.90;;;;;;5017861;28;20054;-61
2022/06/21 05:03:19;;;;;;;;;;;10.10;99.90;;;;;;5016087;28;19936;-61
2022/06/21 05:05:45;;;;;;;;;;;10.20;99.90;;;;;;5019663;28;19917;-61
2022/06/21 05:08:19;;;;;;;;;;;10.20;99.90;;;;;;5012235;28;20012;-61
2022/06/21 05:10:47;;;;;;;;;;;10.30;99.90;;;;;;5017981;28;19998;-61
2022/06/21 05:13:29;;;;;;;;;;;10.30;99.90;;;;;;5004434;28;20018;-61
2022/06/21 05:15:55;;;;;;;;;;;10.30;99.90;;;;;;5020334;28;21098;-61
2022/06/21 05:18:33;;;;;;;;;;;10.30;99.90;;;;;;5018290;28;19921;-61
2022/06/21 05:21:03;;;;;;;;;;;10.50;99.90;;;;;;5020657;28;19937;-59
2022/06/21 05:23:29;;;;;;;;;;;10.70;99.90;;;;;;5016304;28;19913;-60
2022/06/21 05:25:56;;;;;;;;;;;10.90;99.90;;;;;;5016638;28;19917;-60
2022/06/21 05:28:34;;;;;;;;;;;11.20;99.90;;;;;;5021703;28;19996;-59
2022/06/21 05:31:32;;;;;;;;;;;11.30;99.90;;;;;;5013427;28;20389;-60
2022/06/21 05:34:16;;;;;;;;;;;11.50;99.90;;;;;;4998072;28;19921;-59
2022/06/21 05:36:49;;;;;;;;;;;11.60;99.90;;;;;;5016572;28;19913;-59
2022/06/21 05:39:20;;;;;;;;;;;11.70;99.90;;;;;;5010970;28;20337;-59
2022/06/21 05:41:47;;;;;;;;;;;11.80;99.90;;;;;;5018839;28;19920;-60
2022/06/21 05:44:19;;;;;;;;;;;11.90;99.90;;;;;;5018712;28;19931;-60
2022/06/21 05:46:49;;;;;;;;;;;12.00;99.90;;;;;;5021256;28;19921;-60
2022/06/21 05:49:19;;;;;;;;;;;12.10;99.90;;;;;;5003418;28;20018;-61
2022/06/21 05:51:44;;;;;;;;;;;12.30;99.90;;;;;;5019732;28;19913;-61
2022/06/21 05:54:12;;;;;;;;;;;12.50;99.90;;;;;;5015116;28;20420;-61
2022/06/21 05:56:39;;;;;;;;;;;12.90;99.90;;;;;;5021747;28;20281;-59
2022/06/21 05:59:05;;;;;;;;;;;13.00;99.90;;;;;;5031489;28;19936;-60
2022/06/21 06:01:46;;;;;;;;;;;13.10;99.90;;;;;;5031564;28;20407;-60
2022/06/21 06:04:25;;;;;;;;;;;13.20;99.90;;;;;;5027115;28;19914;-60
2022/06/21 06:06:52;;;;;;;;;;;13.20;99.90;;;;;;5031770;28;20027;-60
2022/06/21 06:09:19;;;;;;;;;;;13.30;99.90;;;;;;5032433;28;20046;-60
2022/06/21 06:12:00;;;;;;;;;;;13.30;99.90;;;;;;5027453;28;19909;-60
2022/06/21 06:14:28;;;;;;;;;;;13.40;99.90;;;;;;5023248;28;19914;-60
2022/06/21 06:16:55;;;;;;;;;;;13.50;99.90;;;;;;5031182;28;20058;-60
2022/06/21 06:19:34;;;;;;;;;;;13.50;99.90;;;;;;5019866;28;20342;-61
2022/06/21 06:22:06;;;;;;;;;;;13.60;99.90;;;;;;4998662;28;20146;-61
2022/06/21 06:24:34;;;;;;;;;;;13.80;99.90;;;;;;5015591;28;19913;-61
2022/06/21 06:27:01;;;;;;;;;;;13.90;99.90;;;;;;5015463;28;19970;-61
2022/06/21 06:29:31;;;;;;;;;;;14.00;99.90;;;;;;5015476;28;19932;-61
2022/06/21 06:32:04;;;;;;;;;;;14.20;99.90;;;;;;5017769;28;19917;-61
2022/06/21 06:34:31;;;;;;;;;;;14.30;99.90;;;;;;5014582;28;19913;-61
2022/06/21 06:37:00;;;;;;;;;;;14.50;99.90;;;;;;5000917;28;19929;-61
2022/06/21 06:39:27;;;;;;;;;;;14.60;99.90;;;;;;5019185;28;20016;-61
2022/06/21 06:42:05;;;;;;;;;;;14.70;99.90;;;;;;5003779;28;19914;-61
2022/06/21 06:44:49;;;;;;;;;;;14.70;99.90;;;;;;5018599;28;19913;-61
2022/06/21 06:47:17;;;;;;;;;;;14.80;99.90;;;;;;5020966;28;19921;-62
2022/06/21 06:49:46;;;;;;;;;;;14.90;99.90;;;;;;5009133;28;19974;-61
2022/06/21 06:52:38;;;;;;;;;;;15.10;99.90;;;;;;5016954;28;19913;-61
2022/06/21 06:55:13;;;;;;;;;;;15.30;99.90;;;;;;5012083;28;20328;-61
2022/06/21 06:57:42;;;;;;;;;;;15.40;99.90;;;;;;5022030;28;20313;-61
2022/06/21 07:00:13;;;;;;;;;;;15.40;99.90;;;;;;5019363;28;20007;-62
2022/06/21 07:02:41;;;;;;;;;;;15.30;99.90;;;;;;5023561;28;19924;-62
2022/06/21 07:05:12;;;;;;;;;;;15.30;99.90;;;;;;5014522;28;19914;-62
2022/06/21 07:07:57;;;;;;;;;;;15.30;99.90;;;;;;5013778;28;19940;-62
2022/06/21 07:10:24;;;;;;;;;;;15.30;99.90;;;;;;5017021;28;19921;-63
2022/06/21 07:12:51;;;;;;;;;;;15.60;99.90;;;;;;5018280;28;20063;-63
2022/06/21 07:15:18;;;;;;;;;;;15.80;99.90;;;;;;5017428;28;19964;-63
2022/06/21 07:17:49;;;;;;;;;;;15.90;99.90;;;;;;5023908;28;19917;-63
2022/06/21 07:20:16;;;;;;;;;;;16.00;99.90;;;;;;5022340;28;20371;-63
2022/06/21 07:22:43;;;;;;;;;;;16.10;99.90;;;;;;5027164;28;19917;-63
2022/06/21 07:25:15;;;;;;;;;;;16.20;99.90;;;;;;5019356;28;19909;-63
2022/06/21 07:27:43;;;;;;;;;;;16.20;99.90;;;;;;5019542;28;20178;-63
2022/06/21 07:30:10;;;;;;;;;;;16.20;99.90;;;;;;5020583;28;20265;-63
2022/06/21 07:32:38;;;;;;;;;;;16.40;99.90;;;;;;5022125;28;19932;-63
2022/06/21 07:35:24;;;;;;;;;;;16.60;99.90;;;;;;5023218;28;20190;-62
2022/06/21 07:37:54;;;;;;;;;;;16.60;99.90;;;;;;5020530;28;20258;-63
2022/06/21 07:40:52;;;;;;;;;;;16.80;99.90;;;;;;5023488;28;20296;-63
2022/06/21 07:43:25;;;;;;;;;;;16.80;99.90;;;;;;5001650;28;19966;-63
2022/06/21 07:45:59;;;;;;;;;;;17.00;99.90;;;;;;4996405;28;19921;-63
2022/06/21 07:48:39;;;;;;;;;;;17.10;99.90;;;;;;5024048;28;19916;-63
2022/06/21 07:51:07;;;;;;;;;;;17.20;99.90;;;;;;5020366;28;19924;-63
2022/06/21 07:53:52;;;;;;;;;;;17.40;99.90;;;;;;5022156;28;19909;-63
2022/06/21 07:56:23;;;;;;;;;;;17.50;99.90;;;;;;5023387;28;20353;-63
2022/06/21 07:58:55;;;;;;;;;;;17.40;99.90;;;;;;5023168;28;19951;-63
2022/06/21 08:06:59;;;;;;;;;;;17.80;99.90;;;;;;5022888;28;19928;-63
2022/06/21 08:09:34;;;;;;;;;;;18.30;99.90;;;;;;5019501;28;20258;-63
2022/06/21 08:12:01;;;;;;;;;;;18.00;99.90;;;;;;5022497;28;19940;-63
2022/06/21 08:14:31;;;;;;;;;;;18.40;99.90;;;;;;5024441;28;19967;-63
2022/06/21 08:17:19;;;;;;;;;;;18.80;99.90;;;;;;5025426;28;19975;-63
2022/06/21 08:19:55;;;;;;;;;;;19.20;99.90;;;;;;5003505;28;20373;-63
2022/06/21 08:22:29;;;;;;;;;;;20.00;99.90;;;;;;5019069;28;19943;-63
2022/06/21 08:25:01;;;;;;;;;;;20.00;97.90;;;;;;5025819;28;20234;-63
2022/06/21 08:27:34;;;;;;;;;;;20.50;98.30;;;;;;5022457;28;19917;-63
2022/06/21 08:29:59;;;;;;;;;;;21.20;95.00;;;;;;5021959;28;20417;-63
2022/06/21 08:32:25;;;;;;;;;;;21.30;95.00;;;;;;5006235;28;20004;-63
2022/06/21 08:34:54;;;;;;;;;;;21.50;93.70;;;;;;5020004;28;19948;-63
2022/06/21 08:37:24;;;;;;;;;;;20.90;93.70;;;;;;5023190;28;19921;-63
2022/06/21 08:39:53;;;;;;;;;;;20.90;94.10;;;;;;5023797;28;20420;-63
2022/06/21 08:42:22;;;;;;;;;;;21.50;94.00;;;;;;5020949;28;20352;-63
2022/06/21 08:45:40;;;;;;;;;;;22.30;93.00;;;;;;5026547;28;20000;-63
2022/06/21 08:47:51;;;;;;;;;;;22.40;90.70;;;;;;5022635;28;20388;-63
2022/06/21 08:50:36;;;;;;;;;;;22.30;90.70;;;;;;5021887;28;20380;-63
2022/06/21 08:53:07;;;;;;;;;;;22.40;86.80;;;;;;5023229;28;19963;-63
2022/06/21 08:55:42;;;;;;;;;;;22.00;89.80;;;;;;5023132;28;19963;-63
2022/06/21 08:58:27;;;;;;;;;;;21.60;90.70;;;;;;5026900;28;20310;-63
2022/06/21 09:00:53;;;;;;;;;;;22.20;91.10;;;;;;5022289;28;19925;-63
2022/06/21 09:03:18;;;;;;;;;;;22.50;90.70;;;;;;5021547;28;19921;-63
2022/06/21 09:05:58;;;;;;;;;;;21.90;90.20;;;;;;5015657;28;19909;-63
2022/06/21 09:08:26;;;;;;;;;;;22.80;88.10;;;;;;5011971;28;20248;-63
2022/06/21 09:11:11;;;;;;;;;;;23.00;89.50;;;;;;5014341;28;19914;-63
2022/06/21 09:13:48;;;;;;;;;;;23.20;89.50;;;;;;5015330;28;19910;-63
2022/06/21 09:16:18;;;;;;;;;;;23.20;88.50;;;;;;5018234;28;20261;-63
2022/06/21 09:18:46;;;;;;;;;;;23.40;87.60;;;;;;5020010;28;19925;-63
2022/06/21 09:21:27;;;;;;;;;;;23.90;86.20;;;;;;5014979;28;20360;-63
2022/06/21 09:23:56;;;;;;;;;;;24.50;83.40;;;;;;5012972;28;19949;-63
2022/06/21 09:26:34;;;;;;;;;;;24.30;85.80;;;;;;5016618;28;19909;-63
2022/06/21 09:29:08;;;;;;;;;;;24.10;80.60;;;;;;5013375;28;20324;-63
2022/06/21 09:31:54;;;;;;;;;;;24.10;79.70;;;;;;5013893;28;20010;-63
2022/06/21 09:34:31;;;;;;;;;;;24.60;80.60;;;;;;5009499;28;19925;-63
2022/06/21 09:37:04;;;;;;;;;;;23.60;83.20;;;;;;5018427;28;19964;-63
2022/06/21 09:39:37;;;;;;;;;;;24.80;79.00;;;;;;5009882;28;20411;-63
2022/06/21 09:42:11;;;;;;;;;;;24.40;78.10;;;;;;5012985;28;19909;-63
2022/06/21 09:44:39;;;;;;;;;;;24.30;77.90;;;;;;5016227;28;19979;-70
2022/06/21 09:47:21;;;;;;;;;;;24.60;80.60;;;;;;5022638;28;19992;-63
2022/06/21 09:49:47;;;;;;;;;;;24.50;78.50;;;;;;5015755;28;20272;-63
2022/06/21 09:52:15;;;;;;;;;;;23.90;81.10;;;;;;5013736;28;20344;-63
2022/06/21 09:54:46;;;;;;;;;;;23.50;80.80;;;;;;5014734;28;20054;-63
2022/06/21 09:57:18;;;;;;;;;;;23.00;82.10;;;;;;5017427;28;19913;-64
2022/06/21 09:59:54;;;;;;;;;;;23.20;82.10;;;;;;5012356;28;20369;-63
2022/06/21 10:02:26;;;;;;;;;;;22.60;84.10;;;;;;5001889;28;19918;-63
2022/06/21 10:05:03;;;;;;;;;;;23.20;80.60;;;;;;5014964;28;20234;-63
2022/06/21 10:07:44;;;;;;;;;;;22.80;82.70;;;;;;5017879;28;20374;-63
2022/06/21 10:10:30;;;;;;;;;;;22.90;83.80;;;;;;5016353;28;19910;-63
2022/06/21 10:13:02;;;;;;;;;;;23.40;82.70;;;;;;5017693;28;20434;-63
2022/06/21 10:15:47;;;;;;;;;;;24.10;82.60;;;;;;5014699;28;19914;-63
2022/06/21 10:18:22;;;;;;;;;;;23.30;82.40;;;;;;5017463;28;20215;-63
2022/06/21 10:20:56;;;;;;;;;;;23.50;82.90;;;;;;5021018;28;19910;-63
2022/06/21 10:23:31;;;;;;;;;;;23.00;83.50;;;;;;5015878;28;20032;-63
2022/06/21 10:25:56;;;;;;;;;;;23.50;85.50;;;;;;5017438;28;19993;-63
2022/06/21 10:28:25;;;;;;;;;;;23.70;84.00;;;;;;5017271;28;19909;-63
2022/06/21 10:31:06;;;;;;;;;;;23.40;84.20;;;;;;5017709;28;19921;-63
2022/06/21 10:33:34;;;;;;;;;;;22.70;83.40;;;;;;5018279;28;19992;-63
2022/06/21 10:36:00;;;;;;;;;;;22.70;89.30;;;;;;5018011;28;19909;-63
2022/06/21 10:38:25;;;;;;;;;;;22.40;89.20;;;;;;5014809;28;19918;-63
2022/06/21 10:41:09;;;;;;;;;;;22.70;86.70;;;;;;5018259;28;20357;-63
2022/06/21 10:43:35;;;;;;;;;;;23.70;87.50;;;;;;5018744;28;20387;-63
2022/06/21 10:46:03;;;;;;;;;;;23.80;83.40;;;;;;5014788;28;19996;-63
2022/06/21 10:48:47;;;;;;;;;;;24.70;82.50;;;;;;5019106;28;19944;-63
2022/06/21 10:51:31;;;;;;;;;;;24.50;84.40;;;;;;5017271;28;20371;-63
2022/06/21 10:53:57;;;;;;;;;;;24.20;85.70;;;;;;5018213;28;19910;-63
2022/06/21 10:59:27;;;;;;;;;;;24.90;82.10;;;;;;5021566;28;19967;-63
2022/06/21 11:02:05;;;;;;;;;;;24.40;84.00;;;;;;5018600;28;20365;-63
2022/06/21 11:04:42;;;;;;;;;;;25.90;80.60;;;;;;5015899;28;19979;-63
2022/06/21 11:07:15;;;;;;;;;;;27.10;78.20;;;;;;5017680;28;19913;-63
2022/06/21 11:09:48;;;;;;;;;;;27.30;76.90;;;;;;5017774;28;19964;-63
2022/06/21 11:15:00;;;;;;;;;;;29.80;71.70;;;;;;5013575;28;19921;-63
2022/06/21 11:17:40;;;;;;;;;;;28.30;71.80;;;;;;5017639;28;20007;-63
2022/06/21 11:20:18;;;;;;;;;;;26.90;74.10;;;;;;5016615;28;19914;-64
2022/06/21 11:22:47;;;;;;;;;;;27.60;73.20;;;;;;5017638;28;20377;-62
2022/06/21 11:25:36;;;;;;;;;;;26.60;75.50;;;;;;5014329;28;19950;-62
2022/06/21 11:28:01;;;;;;;;;;;27.40;72.30;;;;;;5016550;28;19922;-62
2022/06/21 11:30:37;;;;;;;;;;;26.70;74.40;;;;;;5014959;28;20404;-62
2022/06/21 11:33:09;;;;;;;;;;;26.80;73.50;;;;;;5017176;28;19913;-62
2022/06/21 11:35:53;;;;;;;;;;;25.50;77.00;;;;;;5013914;28;20243;-62
2022/06/21 11:38:43;;;;;;;;;;;25.30;76.90;;;;;;5015296;28;19925;-62
2022/06/21 11:41:11;;;;;;;;;;;24.90;75.80;;;;;;5016505;28;20381;-62
2022/06/21 11:43:39;;;;;;;;;;;24.60;79.30;;;;;;5018372;28;19909;-62
2022/06/21 11:46:08;;;;;;;;;;;25.20;79.30;;;;;;5017783;28;20428;-62
2022/06/21 11:48:33;;;;;;;;;;;24.70;79.20;;;;;;5016146;28;20024;-62
2022/06/21 11:51:09;;;;;;;;;;;25.10;78.00;;;;;;5014523;28;20036;-62
2022/06/21 11:53:37;;;;;;;;;;;24.30;80.30;;;;;;5017540;28;20000;-62
2022/06/21 11:56:12;;;;;;;;;;;24.90;80.10;;;;;;5016360;28;19934;-62
2022/06/21 11:58:46;;;;;;;;;;;24.90;79.00;;;;;;5019529;28;20276;-62
2022/06/21 12:01:25;;;;;;;;;;;25.10;79.40;;;;;;5014388;28;19924;-62
2022/06/21 12:04:10;;;;;;;;;;;23.80;80.10;;;;;;5016958;28;19928;-62
2022/06/21 12:06:42;;;;;;;;;;;24.10;80.10;;;;;;5015317;28;20159;-62
2022/06/21 12:09:14;;;;;;;;;;;24.50;80.30;;;;;;5002410;28;20260;-62
2022/06/21 12:11:45;;;;;;;;;;;24.40;80.50;;;;;;5012244;28;20281;-62
2022/06/21 12:14:28;;;;;;;;;;;24.40;80.10;;;;;;5016087;28;19916;-62
2022/06/21 12:17:00;;;;;;;;;;;24.10;80.50;;;;;;5017699;28;20372;-61
2022/06/21 12:19:31;;;;;;;;;;;24.10;81.10;;;;;;5015750;28;19938;-61
2022/06/21 12:21:56;;;;;;;;;;;23.40;82.10;;;;;;5015770;28;19958;-62
2022/06/21 12:24:24;;;;;;;;;;;23.30;83.20;;;;;;5016249;28;19917;-62
2022/06/21 12:26:49;;;;;;;;;;;23.30;82.90;;;;;;5013770;28;19910;-62
2022/06/21 12:29:16;;;;;;;;;;;23.00;84.00;;;;;;5000799;28;19921;-61
2022/06/21 12:31:50;;;;;;;;;;;22.90;84.00;;;;;;5017017;28;20246;-62
2022/06/21 12:34:30;;;;;;;;;;;23.10;84.00;;;;;;5014153;28;19921;-62
2022/06/21 12:37:01;;;;;;;;;;;23.40;82.90;;;;;;5014536;28;19910;-62
2022/06/21 12:39:47;;;;;;;;;;;23.50;85.00;;;;;;5012132;28;20007;-61
2022/06/21 12:42:18;;;;;;;;;;;23.30;84.50;;;;;;4976274;28;19909;-61
2022/06/21 12:44:51;;;;;;;;;;;23.00;83.30;;;;;;5016464;28;20372;-61
2022/06/21 12:47:29;;;;;;;;;;;23.10;82.80;;;;;;5013414;28;19909;-61
2022/06/21 12:50:13;;;;;;;;;;;23.80;84.40;;;;;;5016286;28;19954;-62
2022/06/21 12:52:42;;;;;;;;;;;24.80;82.40;;;;;;5013471;28;19955;-62
2022/06/21 12:55:08;;;;;;;;;;;27.00;77.30;;;;;;5010465;28;19961;-62
2022/06/21 12:57:51;;;;;;;;;;;28.30;74.30;;;;;;5015537;28;20335;-62
2022/06/21 13:00:38;;;;;;;;;;;28.90;71.90;;;;;;5011910;28;20212;-62
2022/06/21 13:03:03;;;;;;;;;;;29.30;71.30;;;;;;5017772;28;19910;-62
2022/06/21 13:05:35;;;;;;;;;;;29.90;71.30;;;;;;5011690;28;20011;-62
2022/06/21 13:08:09;;;;;;;;;;;29.30;69.10;;;;;;5011437;28;19920;-62
2022/06/21 13:10:40;;;;;;;;;;;28.20;69.80;;;;;;5016968;28;19930;-62
2022/06/21 13:13:32;;;;;;;;;;;27.80;71.00;;;;;;5014389;28;20004;-62
2022/06/21 13:16:05;;;;;;;;;;;27.50;71.80;;;;;;5010963;28;19909;-62
2022/06/21 13:18:49;;;;;;;;;;;27.40;73.30;;;;;;5012616;28;20245;-61
2022/06/21 13:21:38;;;;;;;;;;;26.30;73.40;;;;;;5016137;28;20390;-62
2022/06/21 13:24:04;;;;;;;;;;;25.80;75.80;;;;;;5026295;28;19927;-62
2022/06/21 13:26:48;;;;;;;;;;;25.40;72.90;;;;;;5020046;28;20020;-62
2022/06/21 13:29:20;;;;;;;;;;;25.90;72.80;;;;;;5012788;28;20005;-62
2022/06/21 13:31:48;;;;;;;;;;;28.10;73.70;;;;;;5011797;28;20019;-62
2022/06/21 13:34:32;;;;;;;;;;;28.20;69.70;;;;;;5013759;28;20286;-62
2022/06/21 13:37:00;;;;;;;;;;;26.60;72.50;;;;;;5010955;28;19928;-62
2022/06/21 13:39:35;;;;;;;;;;;27.00;73.00;;;;;;5011786;28;19948;-62
2022/06/21 13:44:47;;;;;;;;;;;31.50;67.30;;;;;;5018328;28;19920;-62
2022/06/21 13:47:33;;;;;;;;;;;32.10;66.40;;;;;;5020552;28;19909;-62
2022/06/21 13:50:17;;;;;;;;;;;32.30;64.40;;;;;;4979219;28;19921;-62
2022/06/21 13:52:50;;;;;;;;;;;29.70;64.30;;;;;;5018253;28;19910;-62
2022/06/21 13:55:20;;;;;;;;;;;29.20;67.40;;;;;;5020557;28;19932;-61
2022/06/21 13:57:46;;;;;;;;;;;27.90;69.00;;;;;;5023846;28;19909;-62
2022/06/21 14:00:14;;;;;;;;;;;27.50;67.90;;;;;;5016648;28;19924;-62
2022/06/21 14:02:53;;;;;;;;;;;28.60;67.30;;;;;;5024156;28;19920;-62
2022/06/21 14:05:25;;;;;;;;;;;30.20;67.20;;;;;;5016482;28;19959;-62
2022/06/21 14:08:09;;;;;;;;;;;30.20;64.70;;;;;;5016357;28;19992;-62
2022/06/21 14:10:37;;;;;;;;;;;29.50;66.30;;;;;;5016980;28;19909;-61
2022/06/21 14:13:11;;;;;;;;;;;30.90;66.10;;;;;;5016428;28;20416;-61
2022/06/21 14:15:49;;;;;;;;;;;31.70;63.80;;;;;;5019886;28;19909;-61
2022/06/21 14:18:15;;;;;;;;;;;32.10;64.00;;;;;;5017726;28;20269;-62
2022/06/21 14:20:55;;;;;;;;;;;32.90;61.30;;;;;;5013387;28;19917;-62
2022/06/21 14:23:30;;;;;;;;;;;34.00;61.10;;;;;;5016996;28;19936;-61
2022/06/21 14:26:15;;;;;;;;;;;32.10;61.20;;;;;;5018425;28;20371;-61
2022/06/21 14:28:40;;;;;;;;;;;31.40;62.10;;;;;;5013590;28;20408;-62
2022/06/21 14:31:09;;;;;;;;;;;31.50;61.60;;;;;;5015043;28;20083;-62
2022/06/21 14:33:40;;;;;;;;;;;31.80;61.10;;;;;;5016196;28;19929;-61
2022/06/21 14:36:25;;;;;;;;;;;29.90;62.00;;;;;;5019386;28;19909;-61
2022/06/21 14:38:55;;;;;;;;;;;28.70;63.60;;;;;;5014908;28;20342;-61
2022/06/21 14:41:30;;;;;;;;;;;28.50;66.10;;;;;;5015749;28;19917;-61
2022/06/21 14:43:58;;;;;;;;;;;29.60;66.00;;;;;;5005068;28;19913;-62
2022/06/21 14:46:39;;;;;;;;;;;32.10;63.20;;;;;;5015694;28;19914;-61
2022/06/21 14:49:04;;;;;;;;;;;30.70;61.90;;;;;;5016965;28;20303;-61
2022/06/21 14:51:42;;;;;;;;;;;32.90;61.30;;;;;;5014972;28;20044;-62
2022/06/21 14:54:11;;;;;;;;;;;33.20;60.40;;;;;;5016236;28;19913;-62
2022/06/21 14:56:55;;;;;;;;;;;33.20;60.00;;;;;;5018195;28;20271;-62
2022/06/21 14:59:40;;;;;;;;;;;34.30;58.70;;;;;;5015055;28;20321;-62
2022/06/21 15:02:24;;;;;;;;;;;33.20;59.10;;;;;;5015509;28;20273;-62
2022/06/21 15:05:09;;;;;;;;;;;30.90;61.30;;;;;;5016801;28;20280;-61